createdAt,value
2023-02-28T00:00:38.171Z,63.40
2023-02-28T00:03:04.493Z,63.36
2023-02-28T00:05:30.681Z,63.31
2023-02-28T00:07:56.952Z,63.73
2023-02-28T00:10:26.853Z,63.67
2023-02-28T00:12:57.084Z,63.69
2023-02-28T00:15:24.010Z,63.75
2023-02-28T00:17:50.611Z,63.87
2023-02-28T00:20:17.702Z,63.72
2023-02-28T00:22:46.557Z,63.73
2023-02-28T00:25:15.127Z,63.75
2023-02-28T00:27:41.823Z,63.68
2023-02-28T00:30:11.381Z,63.41
2023-02-28T00:32:37.709Z,63.16
2023-02-28T00:35:05.012Z,63.34
2023-02-28T00:37:31.413Z,63.13
2023-02-28T00:39:57.672Z,63.24
2023-02-28T00:42:24.621Z,63.30
2023-02-28T00:44:51.153Z,63.21
2023-02-28T00:47:17.483Z,63.14
2023-02-28T00:49:43.874Z,63.17
2023-02-28T00:52:10.390Z,63.15
2023-02-28T00:54:36.613Z,63.01
2023-02-28T00:57:02.946Z,63.02
2023-02-28T00:59:29.113Z,63.00
2023-02-28T01:01:55.271Z,62.82
2023-02-28T01:04:21.835Z,63.09
2023-02-28T01:06:48.141Z,63.12
2023-02-28T01:09:14.412Z,63.19
2023-02-28T01:11:44.256Z,63.27
2023-02-28T01:14:15.246Z,63.22
2023-02-28T01:16:41.571Z,62.96
2023-02-28T01:19:07.854Z,62.83
2023-02-28T01:21:35.260Z,62.86
2023-02-28T01:24:02.203Z,62.80
2023-02-28T01:26:28.358Z,62.79
2023-02-28T01:28:54.607Z,62.84
2023-02-28T01:31:21.959Z,62.73
2023-02-28T01:33:48.807Z,62.71
2023-02-28T01:36:18.281Z,62.78
2023-02-28T01:38:45.188Z,62.79
2023-02-28T01:41:20.050Z,62.68
2023-02-28T01:43:46.100Z,62.72
2023-02-28T01:46:13.272Z,62.74
2023-02-28T01:48:47.706Z,62.68
2023-02-28T01:51:37.702Z,62.69
2023-02-28T01:54:13.859Z,62.65
2023-02-28T01:56:46.739Z,62.53
2023-02-28T01:59:30.095Z,62.49
2023-02-28T02:01:56.451Z,62.45
2023-02-28T02:04:26.460Z,62.44
2023-02-28T02:06:52.665Z,62.41
2023-02-28T02:09:18.730Z,62.49
2023-02-28T02:11:46.021Z,62.47
2023-02-28T02:14:31.203Z,62.70
2023-02-28T02:17:05.974Z,62.70
2023-02-28T02:20:03.498Z,62.79
2023-02-28T02:22:53.004Z,63.01
2023-02-28T02:25:35.493Z,63.18
2023-02-28T02:28:20.075Z,63.23
2023-02-28T02:30:51.977Z,63.19
2023-02-28T02:33:37.630Z,63.24
2023-02-28T02:36:13.702Z,63.15
2023-02-28T02:39:00.896Z,63.18
2023-02-28T02:41:37.051Z,63.23
2023-02-28T02:44:15.774Z,63.21
2023-02-28T02:46:45.208Z,63.24
2023-02-28T02:49:26.560Z,63.32
2023-02-28T02:51:55.552Z,63.39
2023-02-28T02:54:28.941Z,63.39
2023-02-28T02:56:59.516Z,63.46
2023-02-28T02:59:28.627Z,63.55
2023-02-28T03:02:07.909Z,63.42
2023-02-28T03:04:44.001Z,63.27
2023-02-28T03:07:10.133Z,63.42
2023-02-28T03:09:37.251Z,63.45
2023-02-28T03:12:12.198Z,63.40
2023-02-28T03:14:59.753Z,63.42
2023-02-28T03:17:44.234Z,63.43
2023-02-28T03:20:25.497Z,63.58
2023-02-28T03:23:19.536Z,63.42
2023-02-28T03:26:04.669Z,63.57
2023-02-28T03:28:36.957Z,63.58
2023-02-28T03:31:18.225Z,63.62
2023-02-28T03:33:56.644Z,63.58
2023-02-28T03:36:44.032Z,63.63
2023-02-28T03:39:48.423Z,63.64
2023-02-28T03:42:27.920Z,63.69
2023-02-28T03:45:01.176Z,63.75
2023-02-28T03:47:36.069Z,63.78
2023-02-28T03:50:15.326Z,63.90
2023-02-28T03:53:00.458Z,63.88
2023-02-28T03:55:31.205Z,63.88
2023-02-28T03:58:16.134Z,63.77
2023-02-28T04:00:48.516Z,63.71
2023-02-28T04:03:14.646Z,63.73
2023-02-28T04:05:53.935Z,63.76
2023-02-28T04:08:20.609Z,63.65
2023-02-28T04:10:55.321Z,63.70
2023-02-28T04:13:21.429Z,63.59
2023-02-28T04:15:47.526Z,63.56
2023-02-28T04:18:13.631Z,63.52
2023-02-28T04:20:39.706Z,63.34
2023-02-28T04:23:05.881Z,63.35
2023-02-28T04:25:31.982Z,63.31
2023-02-28T04:27:58.066Z,63.36
2023-02-28T04:30:24.146Z,63.26
2023-02-28T04:32:50.378Z,63.39
2023-02-28T04:35:16.605Z,63.31
2023-02-28T04:37:42.777Z,63.27
2023-02-28T04:40:09.514Z,63.18
2023-02-28T04:42:36.198Z,63.21
2023-02-28T04:45:03.766Z,63.25
2023-02-28T04:47:29.915Z,63.10
2023-02-28T04:49:56.013Z,63.09
2023-02-28T04:52:22.160Z,62.99
2023-02-28T04:54:48.369Z,63.01
2023-02-28T04:57:14.590Z,62.96
2023-02-28T04:59:40.729Z,62.94
2023-02-28T05:02:07.205Z,62.89
2023-02-28T05:04:34.505Z,62.82
2023-02-28T05:07:01.672Z,62.88
2023-02-28T05:09:28.860Z,62.87
2023-02-28T05:11:55.678Z,62.89
2023-02-28T05:14:22.129Z,62.98
2023-02-28T05:16:48.185Z,63.07
2023-02-28T05:19:14.504Z,63.12
2023-02-28T05:21:42.334Z,63.18
2023-02-28T05:24:12.558Z,63.27
2023-02-28T05:26:40.847Z,63.16
2023-02-28T05:29:07.020Z,63.35
2023-02-28T05:31:33.789Z,63.43
2023-02-28T05:34:00.002Z,63.38
2023-02-28T05:36:26.144Z,63.38
2023-02-28T05:38:52.736Z,63.40
2023-02-28T05:41:20.337Z,63.52
2023-02-28T05:43:47.190Z,63.49
2023-02-28T05:46:14.141Z,63.45
2023-02-28T05:48:42.318Z,63.42
2023-02-28T05:51:09.688Z,63.40
2023-02-28T05:53:35.834Z,63.59
2023-02-28T05:56:01.996Z,63.50
2023-02-28T05:58:31.013Z,63.62
2023-02-28T06:01:01.687Z,63.82
2023-02-28T06:03:28.088Z,63.78
2023-02-28T06:05:54.275Z,63.59
2023-02-28T06:08:20.496Z,63.52
2023-02-28T06:10:46.731Z,63.49
2023-02-28T06:13:13.213Z,63.47
2023-02-28T06:15:39.686Z,63.43
2023-02-28T06:18:05.991Z,63.48
2023-02-28T06:20:32.165Z,63.48
2023-02-28T06:22:59.040Z,63.38
2023-02-28T06:25:26.898Z,63.40
2023-02-28T06:27:53.039Z,63.45
2023-02-28T06:30:27.125Z,63.29
2023-02-28T06:32:54.757Z,63.26
2023-02-28T06:35:20.966Z,63.27
2023-02-28T06:37:47.528Z,63.20
2023-02-28T06:40:14.281Z,63.09
2023-02-28T06:42:40.549Z,63.10
2023-02-28T06:45:09.477Z,63.00
2023-02-28T06:47:36.995Z,62.95
2023-02-28T06:50:05.067Z,62.92
2023-02-28T06:52:31.164Z,62.98
2023-02-28T06:55:03.470Z,62.90
2023-02-28T06:57:33.142Z,62.62
2023-02-28T07:00:01.149Z,62.70
2023-02-28T07:02:28.228Z,62.72
2023-02-28T07:04:54.480Z,62.68
2023-02-28T07:07:20.854Z,62.78
2023-02-28T07:09:47.079Z,62.89
2023-02-28T07:12:13.220Z,62.84
2023-02-28T07:14:39.280Z,62.76
2023-02-28T07:17:07.846Z,62.73
2023-02-28T07:19:34.112Z,62.66
2023-02-28T07:22:01.411Z,62.74
2023-02-28T07:24:28.785Z,62.61
2023-02-28T07:26:55.046Z,62.64
2023-02-28T07:29:21.477Z,62.76
2023-02-28T07:31:47.835Z,62.83
2023-02-28T07:34:14.504Z,62.81
2023-02-28T07:36:40.710Z,62.88
2023-02-28T07:39:06.847Z,62.88
2023-02-28T07:41:34.392Z,62.85
2023-02-28T07:44:00.759Z,62.95
2023-02-28T07:46:29.577Z,62.87
2023-02-28T07:48:59.738Z,62.84
2023-02-28T07:51:25.775Z,62.77
2023-02-28T07:53:51.835Z,62.86
2023-02-28T07:56:18.027Z,63.00
2023-02-28T07:58:44.113Z,62.97
2023-02-28T08:01:11.353Z,62.95
2023-02-28T08:03:40.830Z,62.72
2023-02-28T08:06:15.092Z,62.86
2023-02-28T08:08:41.122Z,62.66
2023-02-28T08:11:07.237Z,62.63
2023-02-28T08:13:33.351Z,62.60
2023-02-28T08:16:02.326Z,62.60
2023-02-28T08:18:28.814Z,62.31
2023-02-28T08:20:58.354Z,62.24
2023-02-28T08:23:24.934Z,62.22
2023-02-28T08:25:57.181Z,62.25
2023-02-28T08:28:25.504Z,62.27
2023-02-28T08:30:55.249Z,62.06
2023-02-28T08:33:21.845Z,62.02
2023-02-28T08:35:47.949Z,61.97
2023-02-28T08:38:14.467Z,61.80
2023-02-28T08:40:41.050Z,61.67
2023-02-28T08:43:07.194Z,61.55
2023-02-28T08:45:34.532Z,61.58
2023-02-28T08:48:00.775Z,61.45
2023-02-28T08:50:26.939Z,61.48
2023-02-28T08:52:53.231Z,61.48
2023-02-28T08:55:19.321Z,61.39
2023-02-28T08:57:45.605Z,61.17
2023-02-28T09:00:13.851Z,61.07
2023-02-28T09:02:43.046Z,61.26
2023-02-28T09:05:09.234Z,61.23
2023-02-28T09:07:35.379Z,61.31
2023-02-28T09:10:01.647Z,61.58
2023-02-28T09:12:32.322Z,61.64
2023-02-28T09:14:58.337Z,61.70
2023-02-28T09:17:24.750Z,61.59
2023-02-28T09:19:57.954Z,61.23
2023-02-28T09:22:24.446Z,61.04
2023-02-28T09:24:50.577Z,61.12
2023-02-28T09:27:16.693Z,60.81
2023-02-28T09:29:42.829Z,60.95
2023-02-28T09:32:08.949Z,61.24
2023-02-28T09:34:37.290Z,61.34
2023-02-28T09:37:03.470Z,61.38
2023-02-28T09:39:29.592Z,61.50
2023-02-28T09:41:56.533Z,61.61
2023-02-28T09:44:35.476Z,61.55
2023-02-28T09:47:11.788Z,61.40
2023-02-28T09:49:42.932Z,61.48
2023-02-28T09:52:14.203Z,61.56
2023-02-28T09:54:40.850Z,61.30
2023-02-28T09:57:11.545Z,61.51
2023-02-28T09:59:59.359Z,61.67
2023-02-28T10:02:53.113Z,61.47
2023-02-28T10:05:30.342Z,61.64
2023-02-28T10:07:57.860Z,61.93
2023-02-28T10:10:51.884Z,61.90
2023-02-28T10:13:30.493Z,61.80
2023-02-28T10:16:02.324Z,61.68
2023-02-28T10:18:37.699Z,60.93
2023-02-28T10:21:04.037Z,60.81
2023-02-28T10:23:36.061Z,61.10
2023-02-28T10:26:16.384Z,60.97
2023-02-28T10:28:43.660Z,60.66
2023-02-28T10:31:19.481Z,60.39
2023-02-28T10:33:46.269Z,60.51
2023-02-28T10:36:17.002Z,60.61
2023-02-28T10:38:45.535Z,60.39
2023-02-28T10:41:26.999Z,59.65
2023-02-28T10:43:53.160Z,59.64
2023-02-28T10:46:25.894Z,59.66
2023-02-28T10:49:03.747Z,59.28
2023-02-28T10:51:37.082Z,58.72
2023-02-28T10:54:04.988Z,58.46
2023-02-28T10:56:32.930Z,58.03
2023-02-28T10:59:24.236Z,57.93
2023-02-28T11:01:53.105Z,58.66
2023-02-28T11:04:29.686Z,58.75
2023-02-28T11:07:01.290Z,56.59
2023-02-28T11:09:35.467Z,56.89
2023-02-28T11:12:05.145Z,57.43
2023-02-28T11:14:48.524Z,57.49
2023-02-28T11:17:27.037Z,56.45
2023-02-28T11:19:56.801Z,55.89
2023-02-28T11:22:28.965Z,56.35
2023-02-28T11:24:57.008Z,55.95
2023-02-28T11:27:32.224Z,56.12
2023-02-28T11:29:59.265Z,56.37
2023-02-28T11:32:30.933Z,56.14
2023-02-28T11:35:23.708Z,55.72
2023-02-28T11:37:50.049Z,55.99
2023-02-28T11:40:22.225Z,55.93
2023-02-28T11:43:11.211Z,55.61
2023-02-28T11:45:51.697Z,54.87
2023-02-28T11:48:32.233Z,54.83
2023-02-28T11:51:01.273Z,55.67
2023-02-28T11:53:41.831Z,55.65
2023-02-28T11:56:35.652Z,55.41
2023-02-28T11:59:13.800Z,55.35
2023-02-28T12:02:14.798Z,55.60
2023-02-28T12:05:00.357Z,55.31
2023-02-28T12:07:41.602Z,54.78
2023-02-28T12:10:25.228Z,54.76
2023-02-28T12:12:58.723Z,53.70
2023-02-28T12:15:43.349Z,54.32
2023-02-28T12:18:27.216Z,54.68
2023-02-28T12:21:22.468Z,54.48
2023-02-28T12:24:04.963Z,54.47
2023-02-28T12:26:41.713Z,53.88
2023-02-28T12:29:20.593Z,53.73
2023-02-28T12:32:01.976Z,53.82
2023-02-28T12:34:33.985Z,53.46
2023-02-28T12:37:09.481Z,53.10
2023-02-28T12:39:49.835Z,53.06
2023-02-28T12:42:32.377Z,53.38
2023-02-28T12:45:05.336Z,53.46
2023-02-28T12:47:31.445Z,53.17
2023-02-28T12:50:03.019Z,53.01
2023-02-28T12:53:00.792Z,52.95
2023-02-28T12:55:48.367Z,53.26
2023-02-28T12:58:36.810Z,53.12
2023-02-28T13:01:11.791Z,53.64
2023-02-28T13:03:40.407Z,54.13
2023-02-28T13:06:41.280Z,54.37
2023-02-28T13:09:25.623Z,53.54
2023-02-28T13:11:56.089Z,53.92
2023-02-28T13:14:33.961Z,54.00
2023-02-28T13:17:10.700Z,54.20
2023-02-28T13:19:44.732Z,54.50
2023-02-28T13:22:38.472Z,54.50
2023-02-28T13:25:22.904Z,54.37
2023-02-28T13:27:56.646Z,53.97
2023-02-28T13:30:57.560Z,53.85
2023-02-28T13:33:30.390Z,54.36
2023-02-28T13:36:17.759Z,54.64
2023-02-28T13:38:48.888Z,54.61
2023-02-28T13:41:30.264Z,54.53
2023-02-28T13:44:10.109Z,54.53
2023-02-28T13:46:48.347Z,54.70
2023-02-28T13:49:23.456Z,54.83
2023-02-28T13:51:52.481Z,54.75
2023-02-28T13:54:40.253Z,54.99
2023-02-28T13:57:32.338Z,54.90
2023-02-28T14:00:17.365Z,54.41
2023-02-28T14:02:55.495Z,54.74
2023-02-28T14:05:25.929Z,54.83
2023-02-28T14:07:57.330Z,54.65
2023-02-28T14:10:30.804Z,55.12
2023-02-28T14:12:59.222Z,55.43
2023-02-28T14:15:31.325Z,55.50
2023-02-28T14:17:59.844Z,55.24
2023-02-28T14:20:32.612Z,55.50
2023-02-28T14:23:15.146Z,55.27
2023-02-28T14:26:03.867Z,55.23
2023-02-28T14:28:55.900Z,55.67
2023-02-28T14:31:39.722Z,55.76
2023-02-28T14:34:26.049Z,55.82
2023-02-28T14:36:55.109Z,55.93
2023-02-28T14:39:24.615Z,56.07
2023-02-28T14:41:51.174Z,56.09
2023-02-28T14:44:26.836Z,56.04
2023-02-28T14:46:59.643Z,56.14
2023-02-28T14:49:31.866Z,56.49
2023-02-28T14:52:07.170Z,56.71
2023-02-28T14:54:33.722Z,56.69
2023-02-28T14:56:59.885Z,56.82
2023-02-28T14:59:44.113Z,57.02
2023-02-28T15:02:24.551Z,57.11
2023-02-28T15:04:55.969Z,57.25
2023-02-28T15:07:28.876Z,57.50
2023-02-28T15:10:13.700Z,57.68
2023-02-28T15:12:41.763Z,58.07
2023-02-28T15:15:16.398Z,58.00
2023-02-28T15:17:46.340Z,58.32
2023-02-28T15:20:15.781Z,58.50
2023-02-28T15:22:42.509Z,58.57
2023-02-28T15:25:13.896Z,58.62
2023-02-28T15:27:49.915Z,58.61
2023-02-28T15:30:20.582Z,58.52
2023-02-28T15:33:03.244Z,58.59
2023-02-28T15:35:32.509Z,58.70
2023-02-28T15:38:16.122Z,58.65
2023-02-28T15:40:54.083Z,58.53
2023-02-28T15:43:26.349Z,58.67
2023-02-28T15:45:57.768Z,58.78
2023-02-28T15:48:28.355Z,58.89
2023-02-28T15:50:57.433Z,58.74
2023-02-28T15:53:32.079Z,59.06
2023-02-28T15:56:03.552Z,59.38
2023-02-28T15:58:29.978Z,59.45
2023-02-28T16:01:08.455Z,59.74
2023-02-28T16:03:45.668Z,59.73
2023-02-28T16:06:17.636Z,59.71
2023-02-28T16:08:44.835Z,59.77
2023-02-28T16:11:10.893Z,59.81
2023-02-28T16:13:37.650Z,60.01
2023-02-28T16:16:04.277Z,59.86
2023-02-28T16:18:31.162Z,60.00
2023-02-28T16:20:57.281Z,60.08
2023-02-28T16:23:26.445Z,60.08
2023-02-28T16:25:53.096Z,60.01
2023-02-28T16:28:24.649Z,59.92
2023-02-28T16:30:56.378Z,59.98
2023-02-28T16:33:22.618Z,59.91
2023-02-28T16:35:49.963Z,59.83
2023-02-28T16:38:16.166Z,60.13
2023-02-28T16:40:42.357Z,60.44
2023-02-28T16:43:17.792Z,60.68
2023-02-28T16:45:44.055Z,61.00
2023-02-28T16:48:15.951Z,61.03
2023-02-28T16:50:44.884Z,61.32
2023-02-28T16:53:11.144Z,61.23
2023-02-28T16:55:37.568Z,61.56
2023-02-28T16:58:04.239Z,61.39
2023-02-28T17:00:32.434Z,61.41
2023-02-28T17:03:03.743Z,61.46
2023-02-28T17:05:38.772Z,61.79
2023-02-28T17:08:05.851Z,61.67
2023-02-28T17:10:32.017Z,61.76
2023-02-28T17:13:06.112Z,61.94
2023-02-28T17:15:40.736Z,62.12
2023-02-28T17:18:20.003Z,62.22
2023-02-28T17:20:46.731Z,62.27
2023-02-28T17:23:12.924Z,62.47
2023-02-28T17:25:39.038Z,62.43
2023-02-28T17:28:05.525Z,62.58
2023-02-28T17:30:34.261Z,62.59
2023-02-28T17:33:00.388Z,62.72
2023-02-28T17:35:27.067Z,62.89
2023-02-28T17:37:53.313Z,62.99
2023-02-28T17:40:23.441Z,63.15
2023-02-28T17:42:49.675Z,63.12
2023-02-28T17:45:16.229Z,63.11
2023-02-28T17:47:46.050Z,63.16
2023-02-28T17:50:15.949Z,63.23
2023-02-28T17:52:42.300Z,63.26
2023-02-28T17:55:10.043Z,63.35
2023-02-28T17:57:36.126Z,63.27
2023-02-28T18:00:07.140Z,63.63
2023-02-28T18:02:37.619Z,63.97
2023-02-28T18:05:04.787Z,63.98
2023-02-28T18:07:31.090Z,64.24
2023-02-28T18:09:57.297Z,64.77
2023-02-28T18:12:23.646Z,64.82
2023-02-28T18:14:50.422Z,65.18
2023-02-28T18:17:16.630Z,65.15
2023-02-28T18:19:42.816Z,65.21
2023-02-28T18:22:09.188Z,65.14
2023-02-28T18:24:36.125Z,65.01
2023-02-28T18:27:02.543Z,64.94
2023-02-28T18:29:29.487Z,65.02
2023-02-28T18:31:56.246Z,64.89
2023-02-28T18:34:23.837Z,64.66
2023-02-28T18:36:51.670Z,64.78
2023-02-28T18:39:18.568Z,64.78
2023-02-28T18:41:44.899Z,64.69
2023-02-28T18:44:19.878Z,64.81
2023-02-28T18:46:47.399Z,64.77
2023-02-28T18:49:13.793Z,64.64
2023-02-28T18:51:44.446Z,64.70
2023-02-28T18:54:12.113Z,64.58
2023-02-28T18:56:38.289Z,64.50
2023-02-28T18:59:04.580Z,64.48
2023-02-28T19:01:31.941Z,64.43
2023-02-28T19:04:02.981Z,64.32
2023-02-28T19:06:30.762Z,64.45
2023-02-28T19:08:58.880Z,64.53
2023-02-28T19:11:25.501Z,64.44
2023-02-28T19:13:51.768Z,64.54
2023-02-28T19:16:19.689Z,64.49
2023-02-28T19:18:46.123Z,64.49
2023-02-28T19:21:14.493Z,64.50
2023-02-28T19:23:42.355Z,64.46
2023-02-28T19:26:14.133Z,64.49
2023-02-28T19:28:40.704Z,64.57
2023-02-28T19:31:19.412Z,64.38
2023-02-28T19:33:45.983Z,64.31
2023-02-28T19:36:13.636Z,64.21
2023-02-28T19:38:40.360Z,64.11
2023-02-28T19:41:09.231Z,64.31
2023-02-28T19:43:36.331Z,64.38
2023-02-28T19:46:03.345Z,64.69
2023-02-28T19:48:29.771Z,64.56
2023-02-28T19:51:08.667Z,64.55
2023-02-28T19:53:40.990Z,64.56
2023-02-28T19:56:08.201Z,64.67
2023-02-28T19:58:35.203Z,64.89
2023-02-28T20:01:13.037Z,64.75
2023-02-28T20:03:40.031Z,64.78
2023-02-28T20:06:26.583Z,64.64
2023-02-28T20:08:54.337Z,64.72
2023-02-28T20:11:20.823Z,64.83
2023-02-28T20:13:47.043Z,64.76
2023-02-28T20:16:14.556Z,65.02
2023-02-28T20:18:43.425Z,65.11
2023-02-28T20:21:11.327Z,65.20
2023-02-28T20:23:39.020Z,65.32
2023-02-28T20:26:05.731Z,65.38
2023-02-28T20:28:32.214Z,65.43
2023-02-28T20:30:59.898Z,65.51
2023-02-28T20:33:26.047Z,65.44
2023-02-28T20:35:59.519Z,65.49
2023-02-28T20:38:25.672Z,65.58
2023-02-28T20:40:57.673Z,65.56
2023-02-28T20:43:23.917Z,65.98
2023-02-28T20:45:54.637Z,66.80
2023-02-28T20:48:21.439Z,66.55
2023-02-28T20:50:55.353Z,66.57
2023-02-28T20:53:23.394Z,66.36
2023-02-28T20:56:03.286Z,66.41
2023-02-28T20:58:32.241Z,66.55
2023-02-28T21:01:11.996Z,66.48
2023-02-28T21:03:42.353Z,66.47
2023-02-28T21:06:09.891Z,66.26
2023-02-28T21:08:37.498Z,66.34
2023-02-28T21:11:09.395Z,66.13
2023-02-28T21:13:36.541Z,66.23
2023-02-28T21:16:10.069Z,66.24
2023-02-28T21:18:37.062Z,66.26
2023-02-28T21:21:04.493Z,66.42
2023-02-28T21:23:31.343Z,66.32
2023-02-28T21:26:05.749Z,66.21
2023-02-28T21:28:32.857Z,66.18
2023-02-28T21:31:07.436Z,66.10
2023-02-28T21:33:34.664Z,66.13
2023-02-28T21:36:06.416Z,66.14
2023-02-28T21:38:33.773Z,66.12
2023-02-28T21:41:14.535Z,66.18
2023-02-28T21:43:41.887Z,66.00
2023-02-28T21:46:14.579Z,65.95
2023-02-28T21:48:41.138Z,65.88
2023-02-28T21:51:11.391Z,65.67
2023-02-28T21:53:38.579Z,65.45
2023-02-28T21:56:07.524Z,65.43
2023-02-28T21:58:33.637Z,65.22
2023-02-28T22:01:11.782Z,64.95
2023-02-28T22:03:38.629Z,64.95
2023-02-28T22:06:22.357Z,65.08
2023-02-28T22:08:52.270Z,65.18
2023-02-28T22:11:19.483Z,64.95
2023-02-28T22:13:48.009Z,65.07
2023-02-28T22:16:19.596Z,65.20
2023-02-28T22:18:46.250Z,65.38
2023-02-28T22:21:13.929Z,65.39
2023-02-28T22:23:41.530Z,65.26
2023-02-28T22:26:10.416Z,65.43
2023-02-28T22:28:37.183Z,65.36
2023-02-28T22:31:33.604Z,65.36
2023-02-28T22:34:03.127Z,65.21
2023-02-28T22:36:30.648Z,65.16
2023-02-28T22:38:57.935Z,65.29
2023-02-28T22:41:24.284Z,65.48
2023-02-28T22:43:55.689Z,65.64
2023-02-28T22:46:23.178Z,65.83
2023-02-28T22:48:50.443Z,65.79
2023-02-28T22:51:22.663Z,65.77
2023-02-28T22:53:49.955Z,65.74
2023-02-28T22:56:17.935Z,65.74
2023-02-28T22:58:49.540Z,65.78
2023-02-28T23:01:16.573Z,65.76
2023-02-28T23:03:43.396Z,65.65
2023-02-28T23:06:25.282Z,65.64
2023-02-28T23:08:54.253Z,65.50
2023-02-28T23:11:26.327Z,65.43
2023-02-28T23:13:58.914Z,65.36
2023-02-28T23:16:29.634Z,65.44
2023-02-28T23:18:56.881Z,65.50
2023-02-28T23:21:23.657Z,65.49
2023-02-28T23:23:49.788Z,65.61
2023-02-28T23:26:15.946Z,65.57
2023-02-28T23:28:42.030Z,65.47
2023-02-28T23:31:08.265Z,65.43
2023-02-28T23:33:34.585Z,65.32
2023-02-28T23:36:09.198Z,65.14
2023-02-28T23:38:35.729Z,65.01
2023-02-28T23:41:01.819Z,65.02
2023-02-28T23:43:28.000Z,64.92
2023-02-28T23:45:55.708Z,64.87
2023-02-28T23:48:21.977Z,64.94
2023-02-28T23:50:48.122Z,64.94
2023-02-28T23:53:14.267Z,65.09
2023-02-28T23:55:51.198Z,65.08
2023-02-28T23:58:17.423Z,65.09
